Time;durP1;ratioP1;P1;durP2;ratioP2;P2;SDS_P1;SDS_P2;PMS_P1;PMS_P2;Temp;Humidity;BMP_temperature;BMP_pressure;BME280_temperature;BME280_humidity;BME280_pressure;Samples;Min_cycle;Max_cycle;Signal;HPM_P1;HPM_P2
2022/11/06 00:00:36;;;;;;;7.83;4.63;;;10.50;99.90;;;;;;5074118;28;20690;-38
2022/11/06 00:03:02;;;;;;;6.83;4.60;;;10.50;99.90;;;;;;5088553;28;20223;-38
2022/11/06 00:08:13;;;;;;;6.43;5.10;;;10.40;99.90;;;;;;5089640;28;20465;-38
2022/11/06 00:10:39;;;;;;;6.10;4.87;;;10.40;99.90;;;;;;5089880;28;20426;-38
2022/11/06 00:13:06;;;;;;;5.53;4.37;;;10.40;99.90;;;;;;5071950;28;21022;-38
2022/11/06 00:15:32;;;;;;;5.77;5.17;;;10.40;99.90;;;;;;5070088;28;20454;-38
2022/11/06 00:17:58;;;;;;;7.23;4.63;;;10.40;99.90;;;;;;5069668;28;20303;-38
2022/11/06 00:20:24;;;;;;;6.40;4.50;;;10.40;99.90;;;;;;5069729;28;21018;-38
2022/11/06 00:22:49;;;;;;;7.80;4.50;;;10.40;99.90;;;;;;5072501;28;20181;-38
2022/11/06 00:25:15;;;;;;;6.63;4.47;;;10.40;99.90;;;;;;5070084;28;20228;-37
2022/11/06 00:27:42;;;;;;;5.50;4.37;;;10.40;99.90;;;;;;5069695;28;20262;-39
2022/11/06 00:30:10;;;;;;;4.10;3.60;;;10.40;99.90;;;;;;5069506;28;20200;-38
2022/11/06 00:32:37;;;;;;;5.30;4.07;;;10.50;99.90;;;;;;5067863;28;20431;-39
2022/11/06 00:35:02;;;;;;;5.67;4.13;;;10.40;99.90;;;;;;5069744;28;20420;-38
2022/11/06 00:37:28;;;;;;;6.70;4.07;;;10.40;99.90;;;;;;5069852;28;20434;-38
2022/11/06 00:39:54;;;;;;;6.37;4.13;;;10.30;99.90;;;;;;5069089;28;20471;-38
2022/11/06 00:42:19;;;;;;;4.40;3.60;;;10.40;99.90;;;;;;5069580;28;20200;-38
2022/11/06 00:44:45;;;;;;;7.50;4.90;;;10.40;99.90;;;;;;5069440;28;20189;-38
2022/11/06 00:47:11;;;;;;;5.70;3.53;;;10.40;99.90;;;;;;5068289;28;20567;-38
2022/11/06 00:49:38;;;;;;;5.33;4.30;;;10.40;99.90;;;;;;5069127;28;20210;-38
2022/11/06 00:52:03;;;;;;;6.37;4.30;;;10.30;99.90;;;;;;5072160;28;20200;-38
2022/11/06 00:54:29;;;;;;;6.77;4.40;;;10.30;99.90;;;;;;5073460;28;20933;-37
2022/11/06 00:56:55;;;;;;;7.70;4.20;;;10.30;99.90;;;;;;5073740;28;20193;-38
2022/11/06 00:59:20;;;;;;;5.20;3.83;;;10.30;99.90;;;;;;5073196;28;20204;-38
2022/11/06 01:01:46;;;;;;;4.93;3.97;;;10.20;99.90;;;;;;5073452;28;20279;-38
2022/11/06 01:04:22;;;;;;;3.90;3.50;;;10.20;99.90;;;;;;5078381;28;20267;-38
2022/11/06 01:06:53;;;;;;;7.23;3.93;;;10.20;99.90;;;;;;5092685;28;20269;-38
2022/11/06 01:09:22;;;;;;;5.80;4.23;;;10.20;99.90;;;;;;5093534;28;20453;-38
2022/11/06 01:11:49;;;;;;;5.37;3.60;;;10.20;99.90;;;;;;5093568;28;20430;-38
2022/11/06 01:14:17;;;;;;;5.57;4.27;;;10.20;99.90;;;;;;5093535;28;20426;-38
2022/11/06 01:16:43;;;;;;;4.73;3.40;;;10.20;99.90;;;;;;5093376;28;20438;-38
2022/11/06 01:19:14;;;;;;;5.43;4.93;;;10.20;99.90;;;;;;5092956;28;20426;-38
2022/11/06 01:21:41;;;;;;;4.03;3.00;;;10.20;99.90;;;;;;5093442;28;21050;-38
2022/11/06 01:24:11;;;;;;;3.40;3.10;;;10.20;99.90;;;;;;5077593;28;20538;-38
2022/11/06 01:26:37;;;;;;;5.50;3.40;;;10.20;99.90;;;;;;5073090;28;21151;-38
2022/11/06 01:29:05;;;;;;;5.43;3.17;;;10.20;99.90;;;;;;5072596;28;20427;-38
2022/11/06 01:31:32;;;;;;;5.57;3.37;;;10.20;99.90;;;;;;5072856;28;20459;-38
2022/11/06 01:33:59;;;;;;;4.53;4.07;;;10.10;99.90;;;;;;5070792;28;20430;-38
2022/11/06 01:36:26;;;;;;;4.03;2.97;;;10.10;99.90;;;;;;5073099;28;20431;-38
2022/11/06 01:38:54;;;;;;;7.20;3.40;;;10.10;99.90;;;;;;5072238;28;20489;-38
2022/11/06 01:41:23;;;;;;;4.40;3.40;;;10.10;99.90;;;;;;5073029;28;20455;-38
2022/11/06 01:43:56;;;;;;;4.50;3.03;;;10.10;99.90;;;;;;5072414;28;20420;-38
2022/11/06 01:46:24;;;;;;;8.40;3.67;;;10.10;99.90;;;;;;5072872;28;20518;-38
2022/11/06 01:48:54;;;;;;;6.10;3.37;;;10.10;99.90;;;;;;5072252;28;20428;-38
2022/11/06 01:51:22;;;;;;;5.33;3.17;;;10.10;99.90;;;;;;5072885;28;20464;-37
2022/11/06 01:53:48;;;;;;;5.60;3.77;;;10.10;99.90;;;;;;5072158;28;21241;-38
2022/11/06 01:56:14;;;;;;;5.33;3.33;;;10.10;99.90;;;;;;5072513;28;20428;-38
2022/11/06 01:58:42;;;;;;;6.37;4.20;;;10.00;99.90;;;;;;5072085;28;20431;-38
2022/11/06 02:01:08;;;;;;;4.43;3.23;;;10.00;99.90;;;;;;5072273;28;20467;-38
2022/11/06 02:03:41;;;;;;;10.50;4.00;;;9.90;99.90;;;;;;5072282;28;20411;-38
2022/11/06 02:06:08;;;;;;;3.70;2.83;;;10.00;99.90;;;;;;5072380;28;20439;-38
2022/11/06 02:08:34;;;;;;;4.43;3.43;;;9.90;99.90;;;;;;5072166;28;20447;-38
2022/11/06 02:11:00;;;;;;;3.43;3.13;;;9.90;99.90;;;;;;5072202;28;20883;-38
2022/11/06 02:14:17;;;;;;;6.83;3.30;;;9.90;99.90;;;;;;5087640;28;20925;-38
2022/11/06 02:16:58;;;;;;;4.47;2.73;;;9.90;99.90;;;;;;5017006;28;20469;-38
2022/11/06 02:19:45;;;;;;;8.57;3.57;;;9.90;99.90;;;;;;5071774;28;20462;-38
2022/11/06 02:22:36;;;;;;;5.00;3.20;;;9.90;99.90;;;;;;5072896;28;20493;-38
2022/11/06 02:25:11;;;;;;;6.00;3.10;;;9.90;99.90;;;;;;5092442;28;20402;-38
2022/11/06 02:27:39;;;;;;;6.50;3.10;;;9.90;99.90;;;;;;5092133;28;20927;-38
2022/11/06 02:30:08;;;;;;;5.30;3.37;;;9.90;99.90;;;;;;5092179;28;20441;-38
2022/11/06 02:33:01;;;;;;;5.50;3.07;;;9.80;99.90;;;;;;5090540;28;20917;-38
2022/11/06 02:35:49;;;;;;;4.33;3.03;;;9.80;99.90;;;;;;5092461;28;20497;-38
2022/11/06 02:38:23;;;;;;;6.10;2.97;;;9.90;99.90;;;;;;5091936;28;20411;-38
2022/11/06 02:40:54;;;;;;;6.97;3.07;;;9.90;99.90;;;;;;5092132;28;20469;-38
2022/11/06 02:43:22;;;;;;;4.47;2.80;;;9.90;99.90;;;;;;5091901;28;20418;-38
2022/11/06 02:45:54;;;;;;;3.20;2.80;;;9.90;99.90;;;;;;5092052;28;20483;-38
2022/11/06 02:48:25;;;;;;;6.00;3.00;;;9.90;99.90;;;;;;5091791;28;20863;-38
2022/11/06 02:50:55;;;;;;;4.30;3.83;;;9.90;99.90;;;;;;5092013;28;20425;-37
2022/11/06 02:53:23;;;;;;;5.70;3.10;;;9.80;99.90;;;;;;5090633;28;20509;-38
2022/11/06 02:55:52;;;;;;;5.23;2.90;;;9.80;99.90;;;;;;5090721;28;20436;-38
2022/11/06 02:58:40;;;;;;;4.83;2.87;;;9.80;99.90;;;;;;5091420;28;20468;-37
2022/11/06 03:01:22;;;;;;;5.27;3.07;;;9.90;99.90;;;;;;5091421;28;20535;-38
2022/11/06 03:03:53;;;;;;;5.53;3.00;;;9.90;99.90;;;;;;5091345;28;20418;-38
2022/11/06 03:06:40;;;;;;;3.97;3.07;;;9.80;99.90;;;;;;5091311;28;20834;-37
2022/11/06 03:09:13;;;;;;;4.80;2.80;;;9.70;99.90;;;;;;5091126;28;20484;-38
2022/11/06 03:11:39;;;;;;;3.70;2.70;;;9.80;99.90;;;;;;5090231;28;20422;-38
2022/11/06 03:14:27;;;;;;;5.47;2.87;;;9.70;99.90;;;;;;5090585;28;20403;-38
2022/11/06 03:17:09;;;;;;;6.00;2.80;;;9.60;99.90;;;;;;5091242;28;20187;-37
2022/11/06 03:19:43;;;;;;;6.37;3.47;;;9.70;99.90;;;;;;5090955;28;20447;-38
2022/11/06 03:22:24;;;;;;;5.30;4.20;;;9.70;99.90;;;;;;5089747;28;20824;-38
2022/11/06 03:25:08;;;;;;;5.60;2.53;;;9.70;99.90;;;;;;5091354;28;20430;-38
2022/11/06 03:27:35;;;;;;;4.17;2.50;;;9.70;99.90;;;;;;5091156;28;20446;-37
2022/11/06 03:30:08;;;;;;;3.40;2.30;;;9.70;99.90;;;;;;5090830;28;20418;-38
2022/11/06 03:33:00;;;;;;;2.97;2.70;;;9.70;99.90;;;;;;5089429;28;20417;-38
2022/11/06 03:35:31;;;;;;;3.97;2.40;;;9.70;99.90;;;;;;5091275;28;20417;-38
2022/11/06 03:38:09;;;;;;;5.80;2.83;;;9.70;99.90;;;;;;5090827;28;20822;-38
2022/11/06 03:40:40;;;;;;;4.30;2.80;;;9.70;99.90;;;;;;5090428;28;20453;-38
2022/11/06 03:43:09;;;;;;;5.60;2.37;;;9.70;99.90;;;;;;5090549;28;20463;-38
2022/11/06 03:45:38;;;;;;;5.20;2.57;;;9.70;99.90;;;;;;5091005;28;20930;-38
2022/11/06 03:48:21;;;;;;;2.67;2.00;;;9.70;99.90;;;;;;5090583;28;20410;-38
2022/11/06 03:51:09;;;;;;;7.53;2.40;;;9.70;99.90;;;;;;5090821;28;20413;-38
2022/11/06 03:53:46;;;;;;;3.97;2.30;;;9.80;99.90;;;;;;5090484;28;20407;-38
2022/11/06 03:56:21;;;;;;;4.17;2.30;;;9.70;99.90;;;;;;5090765;28;20449;-38
2022/11/06 03:58:49;;;;;;;3.57;1.90;;;9.70;99.90;;;;;;5090141;28;20441;-38
2022/11/06 04:01:20;;;;;;;3.40;2.33;;;9.70;99.90;;;;;;5090497;28;20461;-38
2022/11/06 04:03:55;;;;;;;3.03;2.10;;;9.70;99.90;;;;;;5090123;28;20896;-38
2022/11/06 04:06:42;;;;;;;5.93;2.50;;;9.70;99.90;;;;;;5090482;28;20940;-38
2022/11/06 04:14:47;;;;;;;5.33;2.40;;;9.90;99.90;;;;;;5090083;28;20415;-38
2022/11/06 04:17:14;;;;;;;4.30;2.27;;;9.90;99.90;;;;;;5090354;28;21257;-38
2022/11/06 04:19:53;;;;;;;4.30;2.37;;;9.90;99.90;;;;;;5089720;28;20990;-37
2022/11/06 04:22:37;;;;;;;5.67;2.07;;;9.90;99.90;;;;;;5090073;28;20422;-38
2022/11/06 04:28:16;;;;;;;3.10;2.23;;;10.00;99.90;;;;;;5090091;28;20414;-38
2022/11/06 04:31:02;;;;;;;4.63;2.07;;;10.00;99.90;;;;;;5089583;28;21286;-38
2022/11/06 04:33:56;;;;;;;3.90;2.20;;;10.00;99.90;;;;;;5088271;28;20446;-38
2022/11/06 04:36:46;;;;;;;4.97;2.30;;;10.00;99.90;;;;;;5090046;28;20416;-37
2022/11/06 04:39:27;;;;;;;7.50;3.10;;;10.00;99.90;;;;;;5089518;28;20411;-38
2022/11/06 04:42:00;;;;;;;2.60;2.00;;;9.80;99.90;;;;;;5090072;28;20448;-38
2022/11/06 04:44:51;;;;;;;3.90;2.30;;;9.90;99.90;;;;;;5071678;28;20421;-38
2022/11/06 04:47:19;;;;;;;3.03;2.47;;;9.90;99.90;;;;;;5089211;28;20450;-38
2022/11/06 04:49:48;;;;;;;3.60;2.53;;;9.80;99.90;;;;;;5089665;28;20425;-38
2022/11/06 04:52:24;;;;;;;7.00;3.83;;;9.80;99.90;;;;;;5089764;28;21120;-37
2022/11/06 04:54:50;;;;;;;3.00;2.10;;;9.90;99.90;;;;;;5089603;28;20436;-37
2022/11/06 04:57:15;;;;;;;4.17;2.70;;;9.70;99.90;;;;;;5089831;28;20502;-38
2022/11/06 04:59:41;;;;;;;3.33;2.40;;;9.70;99.90;;;;;;5089308;28;20549;-37
2022/11/06 05:02:07;;;;;;;3.40;2.00;;;9.70;99.90;;;;;;5089920;28;20176;-38
2022/11/06 05:04:32;;;;;;;2.50;2.30;;;9.60;99.90;;;;;;5089300;28;20226;-38
2022/11/06 05:06:58;;;;;;;4.17;2.30;;;9.60;99.90;;;;;;5089720;28;20276;-37
2022/11/06 05:09:24;;;;;;;5.83;2.37;;;9.50;99.90;;;;;;5089308;28;20188;-38
2022/11/06 05:11:50;;;;;;;5.83;2.60;;;9.40;99.90;;;;;;5089818;28;20418;-38
2022/11/06 05:14:16;;;;;;;3.00;2.10;;;9.50;99.90;;;;;;5089136;28;20188;-38
2022/11/06 05:16:42;;;;;;;5.80;2.90;;;9.40;99.90;;;;;;5089853;28;20494;-38
2022/11/06 05:19:08;;;;;;;5.73;2.53;;;9.40;99.90;;;;;;5089068;28;20743;-37
2022/11/06 05:24:18;;;;;;;3.63;2.60;;;9.20;99.90;;;;;;5089152;28;20427;-38
2022/11/06 05:26:43;;;;;;;3.60;2.80;;;9.40;99.90;;;;;;5089573;28;20429;-38
2022/11/06 05:29:11;;;;;;;8.83;1.83;;;9.40;99.90;;;;;;5089113;28;20168;-38
2022/11/06 05:31:36;;;;;;;3.07;2.13;;;9.30;99.90;;;;;;5089559;28;20604;-38
2022/11/06 05:34:02;;;;;;;5.80;2.37;;;9.30;99.90;;;;;;5087533;28;20415;-38
2022/11/06 05:36:28;;;;;;;5.17;2.40;;;9.10;99.90;;;;;;5089446;28;20225;-37
2022/11/06 05:38:53;;;;;;;3.60;2.40;;;8.80;99.90;;;;;;5092887;28;20424;-38
2022/11/06 05:41:19;;;;;;;6.30;2.13;;;9.30;99.90;;;;;;5092963;28;20257;-38
2022/11/06 05:43:45;;;;;;;3.30;1.73;;;9.30;99.90;;;;;;5091786;28;20207;-38
2022/11/06 05:46:10;;;;;;;5.40;2.53;;;9.30;99.90;;;;;;5093223;28;20495;-38
2022/11/06 05:48:36;;;;;;;7.40;2.37;;;9.40;99.90;;;;;;5092819;28;20208;-38
2022/11/06 05:51:04;;;;;;;2.43;2.23;;;9.30;99.90;;;;;;5093239;28;20188;-38
2022/11/06 05:53:31;;;;;;;8.00;2.90;;;9.30;99.90;;;;;;5091528;28;20541;-38
2022/11/06 05:55:57;;;;;;;3.50;2.20;;;9.30;99.90;;;;;;5092819;28;20418;-38
2022/11/06 05:58:23;;;;;;;4.43;2.27;;;9.30;99.90;;;;;;5092655;28;20409;-37
2022/11/06 06:00:48;;;;;;;4.13;2.10;;;9.40;99.90;;;;;;5093091;28;20830;-38
2022/11/06 06:03:14;;;;;;;5.07;2.20;;;9.40;99.90;;;;;;5092485;28;20310;-37
2022/11/06 06:05:40;;;;;;;2.97;2.33;;;9.40;99.90;;;;;;5092824;28;20192;-38
2022/11/06 06:08:05;;;;;;;3.57;2.03;;;9.10;99.90;;;;;;5092687;28;20180;-37
2022/11/06 06:10:31;;;;;;;4.20;2.60;;;9.60;99.90;;;;;;5092306;28;20176;-38
2022/11/06 06:12:57;;;;;;;2.63;1.77;;;9.40;99.90;;;;;;5092247;28;20192;-38
2022/11/06 06:15:23;;;;;;;3.63;2.63;;;9.30;99.90;;;;;;5092659;28;20169;-38
2022/11/06 06:17:48;;;;;;;4.20;2.50;;;9.40;99.90;;;;;;5092738;28;20204;-38
2022/11/06 06:20:14;;;;;;;3.17;2.40;;;9.40;99.90;;;;;;5090722;28;20208;-37
2022/11/06 06:22:40;;;;;;;3.33;2.57;;;9.30;99.90;;;;;;5092166;28;20208;-38
2022/11/06 06:25:06;;;;;;;4.83;2.30;;;9.30;99.90;;;;;;5092236;28;20176;-38
2022/11/06 06:27:32;;;;;;;6.87;2.30;;;9.30;99.90;;;;;;5092613;28;20188;-38
2022/11/06 06:29:58;;;;;;;3.77;2.03;;;9.10;99.90;;;;;;5091913;28;20425;-38
2022/11/06 06:32:23;;;;;;;3.97;2.20;;;9.10;99.90;;;;;;5090565;28;20411;-38
2022/11/06 06:34:49;;;;;;;3.07;2.40;;;9.40;99.90;;;;;;5092083;28;20180;-37
2022/11/06 06:37:15;;;;;;;2.97;1.90;;;9.40;99.90;;;;;;5091063;28;20184;-38
2022/11/06 06:39:40;;;;;;;6.53;2.40;;;9.40;99.90;;;;;;5091375;28;20666;-38
2022/11/06 06:42:06;;;;;;;5.10;2.43;;;9.40;99.90;;;;;;5092081;28;21000;-37
2022/11/06 06:44:31;;;;;;;3.30;2.20;;;9.40;99.90;;;;;;5090783;28;20176;-38
2022/11/06 06:46:57;;;;;;;2.90;2.07;;;9.40;99.90;;;;;;5090610;28;20191;-37
2022/11/06 06:49:23;;;;;;;3.63;2.10;;;9.40;99.90;;;;;;5090501;28;20215;-38
2022/11/06 06:51:49;;;;;;;6.10;2.00;;;9.40;99.90;;;;;;5091875;28;20598;-38
2022/11/06 06:54:15;;;;;;;2.40;1.90;;;9.40;99.90;;;;;;5091505;28;20199;-38
2022/11/06 06:56:40;;;;;;;2.60;2.07;;;9.40;99.90;;;;;;5091667;28;20916;-38
2022/11/06 06:59:06;;;;;;;4.90;2.17;;;9.40;99.90;;;;;;5091383;28;20599;-38
2022/11/06 07:01:32;;;;;;;4.30;2.07;;;9.30;99.90;;;;;;5091681;28;20181;-38
2022/11/06 07:03:58;;;;;;;3.93;2.00;;;9.20;99.90;;;;;;5089753;28;20635;-38
2022/11/06 07:06:24;;;;;;;4.33;2.10;;;9.20;99.90;;;;;;5091432;28;20510;-38
2022/11/06 07:08:54;;;;;;;4.20;1.60;;;9.40;99.90;;;;;;5087783;28;20488;-38
2022/11/06 07:11:20;;;;;;;2.07;1.67;;;9.30;99.90;;;;;;5091569;28;20414;-37
2022/11/06 07:13:46;;;;;;;5.23;2.50;;;9.50;99.90;;;;;;5082586;28;20429;-38
2022/11/06 07:16:12;;;;;;;4.17;2.10;;;9.50;99.90;;;;;;5091178;28;20423;-38
2022/11/06 07:18:39;;;;;;;3.53;2.10;;;9.40;99.90;;;;;;5090764;28;20176;-38
2022/11/06 07:21:08;;;;;;;3.30;1.80;;;9.70;99.90;;;;;;5091346;28;20291;-38
2022/11/06 07:23:34;;;;;;;4.13;2.07;;;9.70;99.90;;;;;;5090547;28;20418;-38
2022/11/06 07:26:01;;;;;;;4.80;2.40;;;9.80;99.90;;;;;;5089156;28;20456;-38
2022/11/06 07:28:26;;;;;;;4.13;1.70;;;9.80;99.90;;;;;;5090240;28;20497;-38
2022/11/06 07:30:56;;;;;;;5.43;2.03;;;9.90;99.90;;;;;;5090635;28;20426;-38
2022/11/06 07:33:21;;;;;;;3.70;1.70;;;9.90;99.90;;;;;;5088764;28;20337;-38
2022/11/06 07:35:47;;;;;;;4.93;1.90;;;9.90;99.90;;;;;;5080758;28;20520;-37
2022/11/06 07:38:13;;;;;;;3.83;1.87;;;9.90;99.90;;;;;;5090654;28;20668;-38
2022/11/06 07:40:38;;;;;;;5.20;1.83;;;9.90;99.90;;;;;;5090355;28;20705;-38
2022/11/06 07:43:09;;;;;;;3.47;2.17;;;10.00;99.90;;;;;;5090857;28;20188;-38
2022/11/06 07:45:37;;;;;;;2.90;1.80;;;10.20;99.90;;;;;;5090784;28;20173;-38
2022/11/06 07:48:03;;;;;;;4.13;2.97;;;10.40;99.90;;;;;;5090823;28;20406;-38
2022/11/06 07:50:29;;;;;;;2.87;1.80;;;10.60;99.90;;;;;;5090189;28;20422;-38
2022/11/06 07:52:55;;;;;;;2.37;1.80;;;10.80;99.90;;;;;;5090363;28;20865;-38
2022/11/06 07:55:20;;;;;;;4.17;2.03;;;11.00;99.90;;;;;;5089509;28;20180;-38
2022/11/06 07:57:46;;;;;;;4.23;2.03;;;11.20;99.90;;;;;;5090604;28;20417;-38
2022/11/06 08:00:13;;;;;;;2.90;1.50;;;11.40;99.90;;;;;;5090230;28;20211;-38
2022/11/06 08:02:39;;;;;;;4.23;1.80;;;11.40;99.90;;;;;;5086076;28;20438;-38
2022/11/06 08:05:04;;;;;;;4.73;1.60;;;11.50;99.90;;;;;;5089945;28;20418;-38
2022/11/06 08:07:30;;;;;;;4.30;1.97;;;11.60;99.90;;;;;;5090044;28;20434;-38
2022/11/06 08:09:56;;;;;;;2.37;1.60;;;11.70;99.90;;;;;;5090190;28;20774;-38
2022/11/06 08:12:21;;;;;;;4.67;2.40;;;11.90;99.90;;;;;;5088982;28;20272;-38
2022/11/06 08:14:47;;;;;;;4.43;1.77;;;12.10;99.90;;;;;;5090342;28;20230;-38
2022/11/06 08:17:12;;;;;;;2.50;1.70;;;12.10;99.90;;;;;;5089168;28;20656;-37
2022/11/06 08:19:38;;;;;;;2.50;1.90;;;12.20;99.90;;;;;;5087649;28;20297;-38
2022/11/06 08:22:04;;;;;;;2.67;1.53;;;12.30;99.90;;;;;;5093118;28;20345;-38
2022/11/06 08:24:29;;;;;;;5.10;2.07;;;12.50;99.90;;;;;;5089744;28;20276;-38
2022/11/06 08:26:57;;;;;;;3.40;2.00;;;12.60;99.90;;;;;;5090122;28;20184;-38
2022/11/06 08:29:22;;;;;;;2.90;1.63;;;12.60;99.90;;;;;;5089121;28;20207;-38
2022/11/06 08:31:48;;;;;;;4.37;1.30;;;12.70;99.90;;;;;;5087333;28;20432;-38
2022/11/06 08:34:14;;;;;;;2.00;1.50;;;12.90;99.90;;;;;;5083184;28;20184;-38
2022/11/06 08:36:49;;;;;;;7.57;2.10;;;13.00;99.90;;;;;;5086292;28;20193;-38
2022/11/06 08:39:15;;;;;;;2.60;1.97;;;13.00;99.90;;;;;;5089321;28;20593;-38
2022/11/06 08:41:41;;;;;;;3.23;1.90;;;13.00;99.90;;;;;;5087531;28;20978;-38
2022/11/06 08:44:07;;;;;;;6.50;2.00;;;13.10;99.90;;;;;;5088646;28;20414;-38
2022/11/06 08:46:33;;;;;;;5.97;2.30;;;13.10;99.90;;;;;;5089465;28;20475;-37
2022/11/06 08:48:58;;;;;;;2.23;1.87;;;13.20;99.90;;;;;;5088983;28;20230;-37
2022/11/06 08:51:24;;;;;;;4.50;1.83;;;13.40;99.90;;;;;;5089836;28;20686;-37
2022/11/06 08:53:50;;;;;;;3.67;1.53;;;13.50;99.90;;;;;;5089597;28;20177;-37
2022/11/06 08:56:16;;;;;;;4.00;1.87;;;13.70;99.90;;;;;;5089737;28;20339;-38
2022/11/06 08:58:42;;;;;;;2.57;1.67;;;13.70;99.90;;;;;;5089343;28;20184;-37
2022/11/06 09:01:08;;;;;;;4.03;1.90;;;13.80;99.90;;;;;;5088468;28;20454;-37
2022/11/06 09:03:33;;;;;;;4.40;2.13;;;13.90;99.90;;;;;;5089260;28;20501;-37
2022/11/06 09:05:59;;;;;;;3.70;2.07;;;13.80;99.90;;;;;;5089450;28;20530;-37
2022/11/06 09:08:25;;;;;;;2.73;1.70;;;14.00;99.90;;;;;;5089318;28;20230;-37
2022/11/06 09:10:51;;;;;;;2.37;1.53;;;14.10;99.90;;;;;;5089860;28;20278;-37
2022/11/06 09:13:16;;;;;;;4.00;2.00;;;14.20;99.90;;;;;;5092401;28;20752;-38
2022/11/06 09:15:42;;;;;;;4.53;2.07;;;14.20;99.90;;;;;;5093868;28;20181;-37
2022/11/06 09:18:09;;;;;;;4.30;2.23;;;14.30;99.90;;;;;;5093495;28;20176;-38
2022/11/06 09:20:35;;;;;;;3.57;1.60;;;14.40;99.90;;;;;;5093428;28;20303;-37
2022/11/06 09:23:05;;;;;;;3.93;1.67;;;14.40;99.90;;;;;;5093133;28;20509;-37
2022/11/06 09:25:31;;;;;;;4.70;2.27;;;14.30;99.90;;;;;;5093921;28;20418;-38
2022/11/06 09:27:57;;;;;;;5.17;1.93;;;14.10;99.90;;;;;;5093446;28;20417;-38
2022/11/06 09:30:24;;;;;;;3.50;1.60;;;13.90;99.90;;;;;;5091825;28;20698;-38
2022/11/06 09:32:55;;;;;;;3.60;1.90;;;13.70;99.90;;;;;;5092130;28;20420;-38
2022/11/06 09:35:22;;;;;;;5.43;1.87;;;13.60;99.90;;;;;;5093551;28;20449;-38
2022/11/06 09:37:48;;;;;;;3.10;2.17;;;13.50;99.90;;;;;;5093333;28;20505;-37
2022/11/06 09:40:24;;;;;;;2.87;2.00;;;13.40;99.90;;;;;;5092783;28;20552;-37
2022/11/06 09:43:18;;;;;;;5.60;1.97;;;13.30;99.90;;;;;;5092957;28;20410;-37
2022/11/06 09:45:47;;;;;;;3.97;1.80;;;13.20;99.90;;;;;;5091739;28;20426;-38
2022/11/06 09:48:45;;;;;;;3.27;1.90;;;13.10;99.90;;;;;;5093169;28;20461;-38
2022/11/06 09:51:22;;;;;;;5.97;1.80;;;13.00;99.90;;;;;;5093153;28;20772;-38
2022/11/06 09:53:52;;;;;;;4.17;2.00;;;13.10;99.90;;;;;;5092870;28;20519;-38
2022/11/06 09:56:20;;;;;;;2.83;1.60;;;13.20;99.90;;;;;;5092875;28;20445;-38
2022/11/06 09:58:47;;;;;;;3.70;1.60;;;13.20;99.90;;;;;;5092692;28;20946;-38
2022/11/06 10:01:33;;;;;;;3.40;1.70;;;13.20;99.90;;;;;;5092972;28;20458;-38
2022/11/06 10:04:00;;;;;;;3.47;2.03;;;13.10;99.90;;;;;;5092338;28;20402;-37
2022/11/06 10:06:27;;;;;;;3.87;1.60;;;13.10;99.90;;;;;;5092195;28;20496;-38
2022/11/06 10:08:57;;;;;;;3.57;1.60;;;13.10;99.90;;;;;;5092273;28;20895;-37
2022/11/06 10:11:37;;;;;;;4.70;1.83;;;13.10;99.90;;;;;;5092681;28;20989;-37
2022/11/06 10:14:32;;;;;;;4.43;2.33;;;13.10;99.90;;;;;;5092577;28;20418;-37
2022/11/06 10:17:27;;;;;;;3.83;2.00;;;13.00;99.90;;;;;;5074545;28;20423;-37
2022/11/06 10:20:05;;;;;;;2.20;1.70;;;12.90;99.90;;;;;;5092172;28;20506;-37
2022/11/06 10:22:45;;;;;;;4.93;1.97;;;12.90;99.90;;;;;;5092227;28;20421;-38
2022/11/06 10:25:42;;;;;;;5.33;1.80;;;12.80;99.90;;;;;;5091593;28;20435;-37
2022/11/06 10:28:26;;;;;;;3.60;1.90;;;12.80;99.90;;;;;;5092403;28;20402;-38
2022/11/06 10:31:36;;;;;;;2.13;1.93;;;12.80;99.90;;;;;;5092250;28;20504;-37
2022/11/06 10:34:08;;;;;;;6.07;1.90;;;12.70;99.90;;;;;;5081761;28;20418;-37
2022/11/06 10:36:50;;;;;;;2.47;2.07;;;12.70;99.90;;;;;;5092410;28;20414;-38
2022/11/06 10:39:22;;;;;;;6.67;2.10;;;12.70;99.90;;;;;;5091497;28;20416;-37
2022/11/06 10:41:54;;;;;;;3.70;1.90;;;12.60;99.90;;;;;;5090981;28;20399;-37
2022/11/06 10:44:37;;;;;;;5.30;1.70;;;12.70;99.90;;;;;;5091709;28;20410;-38
2022/11/06 10:47:11;;;;;;;3.80;1.80;;;12.70;99.90;;;;;;5092038;28;20511;-37
2022/11/06 10:49:44;;;;;;;4.60;1.90;;;12.70;99.90;;;;;;5090730;28;20418;-37
2022/11/06 10:52:25;;;;;;;3.27;1.90;;;12.80;99.90;;;;;;5091574;28;20450;-37
2022/11/06 10:54:51;;;;;;;3.30;1.80;;;12.90;99.90;;;;;;5090304;28;20418;-38
2022/11/06 10:57:37;;;;;;;6.73;2.10;;;12.90;99.90;;;;;;5092030;28;20407;-37
2022/11/06 11:00:04;;;;;;;2.60;1.67;;;12.90;99.90;;;;;;5091108;28;20446;-38
2022/11/06 11:02:34;;;;;;;6.07;1.90;;;12.80;99.90;;;;;;5090250;28;20999;-37
2022/11/06 11:05:00;;;;;;;2.53;1.80;;;12.80;99.90;;;;;;5091335;28;20449;-38
2022/11/06 11:07:30;;;;;;;5.00;1.70;;;12.80;99.90;;;;;;5091799;28;20490;-37
2022/11/06 11:09:56;;;;;;;4.97;1.60;;;12.70;99.90;;;;;;5091121;28;20499;-37
2022/11/06 11:12:26;;;;;;;5.73;1.93;;;12.70;99.90;;;;;;5090179;28;20505;-37
2022/11/06 11:15:18;;;;;;;5.00;2.17;;;12.70;99.90;;;;;;5091254;28;20184;-37
2022/11/06 11:18:08;;;;;;;3.00;1.50;;;12.70;99.90;;;;;;5091644;28;20406;-38
2022/11/06 11:20:37;;;;;;;3.33;1.53;;;12.60;99.90;;;;;;5091169;28;20461;-38
2022/11/06 11:23:09;;;;;;;4.13;1.67;;;12.70;99.90;;;;;;5090715;28;20508;-38
2022/11/06 11:25:35;;;;;;;3.63;2.23;;;12.70;99.90;;;;;;5091683;28;20863;-38
2022/11/06 11:28:03;;;;;;;3.67;2.03;;;12.60;99.90;;;;;;5091465;28;20454;-37
2022/11/06 11:30:28;;;;;;;5.63;2.00;;;12.50;99.90;;;;;;5090924;28;20227;-37
2022/11/06 11:32:58;;;;;;;3.90;1.90;;;12.50;99.90;;;;;;5089914;28;20458;-37
2022/11/06 11:35:29;;;;;;;2.90;1.60;;;12.40;99.90;;;;;;5090861;28;20507;-37
2022/11/06 11:38:13;;;;;;;1.90;1.53;;;12.40;99.90;;;;;;5090843;28;20426;-38
2022/11/06 11:40:39;;;;;;;5.63;2.07;;;12.40;99.90;;;;;;5090647;28;20458;-37
2022/11/06 11:43:28;;;;;;;2.00;1.90;;;12.40;99.90;;;;;;5089174;28;20950;-38
2022/11/06 11:46:08;;;;;;;3.00;1.60;;;12.40;99.90;;;;;;5090988;28;20417;-38
2022/11/06 11:48:43;;;;;;;4.47;2.20;;;12.40;99.90;;;;;;5090532;28;20466;-38
2022/11/06 11:51:25;;;;;;;4.60;2.33;;;12.50;99.90;;;;;;5090988;28;20418;-39
2022/11/06 11:54:28;;;;;;;4.87;2.17;;;12.50;99.90;;;;;;5090361;28;20414;-37
2022/11/06 11:56:56;;;;;;;5.10;2.20;;;12.50;99.90;;;;;;5047779;28;20416;-38
2022/11/06 11:59:45;;;;;;;3.70;2.20;;;12.50;99.90;;;;;;5081914;28;20419;-38
2022/11/06 12:02:19;;;;;;;2.10;1.90;;;12.50;99.90;;;;;;5090659;28;20410;-38
2022/11/06 12:04:51;;;;;;;2.83;2.43;;;12.40;99.90;;;;;;5090115;28;20472;-38
2022/11/06 12:07:37;;;;;;;5.23;2.40;;;12.40;99.90;;;;;;5090696;28;20407;-37
2022/11/06 12:10:29;;;;;;;3.47;2.13;;;12.40;99.90;;;;;;5090113;28;20510;-38
2022/11/06 12:12:57;;;;;;;3.10;2.13;;;12.30;99.90;;;;;;5090174;28;20421;-38
2022/11/06 12:16:09;;;;;;;4.40;2.20;;;12.30;99.90;;;;;;5090308;28;20543;-38
2022/11/06 12:18:41;;;;;;;6.43;2.47;;;12.30;99.90;;;;;;5089603;28;20418;-38
2022/11/06 12:21:28;;;;;;;5.13;2.47;;;12.30;99.90;;;;;;5090208;28;20459;-37
2022/11/06 12:24:00;;;;;;;2.53;1.90;;;12.30;99.90;;;;;;5090054;28;20406;-37
2022/11/06 12:26:56;;;;;;;4.10;2.00;;;12.30;99.90;;;;;;5090300;28;20406;-37
2022/11/06 12:29:31;;;;;;;2.70;2.23;;;12.40;99.90;;;;;;5090134;28;20402;-38
2022/11/06 12:32:05;;;;;;;2.93;1.73;;;12.30;99.90;;;;;;5088157;28;20406;-37
2022/11/06 12:34:46;;;;;;;4.40;1.87;;;12.30;99.90;;;;;;5084610;28;20517;-38
2022/11/06 12:37:42;;;;;;;5.43;2.40;;;12.30;99.90;;;;;;5089461;28;20457;-38
2022/11/06 12:40:17;;;;;;;5.23;2.83;;;12.20;99.90;;;;;;5084027;28;20462;-39
2022/11/06 12:43:03;;;;;;;3.40;2.23;;;12.20;99.90;;;;;;5086306;28;20429;-39
2022/11/06 12:45:41;;;;;;;2.93;2.63;;;12.20;99.90;;;;;;5090823;28;20515;-39
2022/11/06 12:48:57;;;;;;;5.60;2.37;;;12.20;99.90;;;;;;5089231;28;20421;-39
2022/11/06 12:51:42;;;;;;;5.17;2.57;;;12.10;99.90;;;;;;5066806;28;20442;-38
2022/11/06 12:54:26;;;;;;;6.67;2.50;;;12.10;99.90;;;;;;5046231;28;20518;-39
2022/11/06 12:57:01;;;;;;;4.50;2.27;;;12.10;99.90;;;;;;5064922;28;21278;-39
2022/11/06 12:59:45;;;;;;;7.03;2.67;;;12.20;99.90;;;;;;5084088;28;20441;-39
2022/11/06 13:02:16;;;;;;;3.03;2.10;;;12.20;99.90;;;;;;5092949;28;20433;-40
2022/11/06 13:04:54;;;;;;;4.03;2.10;;;12.20;99.90;;;;;;5095948;28;20447;-39
2022/11/06 13:07:42;;;;;;;7.40;3.00;;;12.20;99.90;;;;;;5096891;28;20432;-39
2022/11/06 13:10:15;;;;;;;3.43;2.40;;;12.10;99.90;;;;;;5095666;28;20402;-39
2022/11/06 13:13:07;;;;;;;3.03;1.90;;;12.10;99.90;;;;;;5089402;28;20427;-39
2022/11/06 13:15:49;;;;;;;3.60;2.17;;;12.10;99.90;;;;;;5094298;28;20410;-39
2022/11/06 13:18:23;;;;;;;5.67;2.43;;;12.10;99.90;;;;;;5098708;28;20391;-39
2022/11/06 13:21:19;;;;;;;2.53;1.80;;;12.20;99.90;;;;;;5099958;28;20484;-39
2022/11/06 13:23:51;;;;;;;3.37;1.63;;;12.20;99.90;;;;;;5094705;28;20407;-39
2022/11/06 13:26:43;;;;;;;3.30;1.90;;;12.20;99.90;;;;;;5094115;28;20450;-39
2022/11/06 13:29:12;;;;;;;4.83;2.33;;;12.20;99.90;;;;;;5088073;28;20513;-39